| time (UTC) | temp F | wind direction | speed knots | gust knots | rain 1hr in | rain 24hr in | rain mn in | humidity % | barometer mb |
| 20260510104036 | 48 | 23 | 0.9 | 3.5 | 0.00 | 0.38 | 0.01 | 87 | 1012.6 |
| 20260510103016 | 48 | 45 | 1.7 | 5.2 | 0.00 | 0.38 | 0.01 | 87 | 1012.2 |
| 20260510102036 | 48 | 0 | 0.9 | 4.3 | 0.00 | 0.39 | 0.01 | 88 | 1012.1 |
| 20260510101016 | 47 | 0.0 | 0.0 | 0.00 | 0.39 | 0.01 | 88 | 1011.9 | |
| 20260510100036 | 47 | 45 | 0.9 | 3.5 | 0.00 | 0.39 | 0.01 | 88 | 1012.0 |
| 20260510095016 | 47 | 68 | 0.9 | 3.5 | 0.00 | 0.40 | 0.01 | 89 | 1012.0 |
| 20260510094017 | 47 | 45 | 0.9 | 2.6 | 0.00 | 0.40 | 0.01 | 89 | 1011.8 |
| 20260510093016 | 47 | 0.0 | 0.0 | 0.00 | 0.40 | 0.01 | 90 | 1011.7 | |
| 20260510092016 | 47 | 0.0 | 0.0 | 0.00 | 0.40 | 0.01 | 91 | 1011.3 | |
| 20260510091016 | 47 | 0.0 | 0.0 | 0.00 | 0.40 | 0.01 | 91 | 1011.1 | |
| 20260510090017 | 47 | 0.0 | 1.7 | 0.00 | 0.41 | 0.01 | 92 | 1010.9 | |
| 20260510085016 | 48 | 0.0 | 1.7 | 0.00 | 0.42 | 0.01 | 92 | 1010.7 | |
| 20260510084017 | 48 | 0.0 | 0.0 | 0.00 | 0.42 | 0.01 | 92 | 1010.5 | |
| 20260510083016 | 48 | 23 | 0.9 | 3.5 | 0.00 | 0.43 | 0.01 | 92 | 1010.4 |
| 20260510082038 | 49 | 23 | 0.9 | 3.5 | 0.00 | 0.44 | 0.01 | 93 | 1010.4 |
| 20260510081016 | 49 | 0 | 2.6 | 4.3 | 0.00 | 0.46 | 0.01 | 95 | 1010.4 |
| 20260510080016 | 50 | 23 | 1.7 | 4.3 | 0.00 | 0.47 | 0.01 | 96 | 1010.4 |
| 20260510075016 | 51 | 23 | 2.6 | 6.1 | 0.00 | 0.48 | 0.01 | 97 | 1010.3 |
| 20260510074016 | 51 | 23 | 1.7 | 5.2 | 0.00 | 0.50 | 0.01 | 97 | 1010.1 |
| 20260510073016 | 52 | 45 | 0.9 | 5.2 | 0.00 | 0.51 | 0.01 | 98 | 1010.1 |
| 20260510072016 | 53 | 23 | 0.9 | 4.3 | 0.00 | 0.53 | 0.01 | 98 | 1009.8 |
| 20260510071016 | 53 | 0 | 2.6 | 6.1 | 0.00 | 0.55 | 0.01 | 98 | 1009.6 |
| 20260510070114 | 52 | 0.0 | 3.5 | 0.00 | 0.56 | 0.01 | 98 | 1009.3 | |
| 20260510065036 | 52 | 0.0 | 2.6 | 0.00 | 0.58 | 0.01 | 98 | 1009.2 | |
| 20260510064016 | 52 | 0.0 | 0.0 | 0.00 | 0.59 | 0.01 | 98 | 1009.0 | |
| 20260510063036 | 52 | 0.0 | 0.9 | 0.00 | 0.60 | 0.01 | 98 | 1009.0 | |
| 20260510062016 | 52 | 0.0 | 0.0 | 0.00 | 0.61 | 0.01 | 98 | 1009.0 | |
| 20260510061016 | 53 | 0.0 | 0.0 | 0.00 | 0.63 | 0.01 | 98 | 1008.8 | |
| 20260510060016 | 53 | 0.0 | 0.9 | 0.00 | 0.64 | 0.01 | 98 | 1008.8 | |
| 20260510055016 | 53 | 0.0 | 3.5 | 0.00 | 0.65 | 0.01 | 98 | 1008.8 | |
| 20260510054036 | 53 | 0.0 | 0.0 | 0.00 | 0.66 | 0.01 | 98 | 1008.7 | |
| 20260510053016 | 53 | 0.0 | 0.0 | 0.00 | 0.67 | 0.01 | 98 | 1008.6 | |
| 20260510052016 | 53 | 0.0 | 0.0 | 0.00 | 0.67 | 0.01 | 98 | 1008.4 | |
| 20260510051016 | 52 | 0.0 | 0.0 | 0.01 | 0.68 | 0.01 | 98 | 1008.5 | |
| 20260510050036 | 52 | 0.0 | 0.0 | 0.01 | 0.69 | 0.01 | 98 | 1008.5 | |
| 20260510045016 | 53 | 0.0 | 0.0 | 0.01 | 0.70 | 0.01 | 98 | 1008.2 | |
| 20260510044016 | 53 | 0.0 | 0.0 | 0.01 | 0.71 | 0.01 | 98 | 1008.0 | |
| 20260510043016 | 53 | 0.0 | 0.0 | 0.01 | 0.71 | 0.01 | 98 | 1008.2 | |
| 20260510042016 | 53 | 0.0 | 0.0 | 0.02 | 0.72 | 0.01 | 97 | 1008.2 | |
| 20260510041016 | 54 | 0.0 | 0.0 | 0.01 | 0.72 | 0.00 | 97 | 1008.2 | |
| 20260510040036 | 54 | 0.0 | 0.0 | 0.01 | 0.73 | 0.73 | 98 | 1008.1 | |
| 20260510035017 | 55 | 0.0 | 0.0 | 0.02 | 0.75 | 0.73 | 98 | 1008.0 | |
| 20260510034037 | 54 | 0 | 3.5 | 8.7 | 0.02 | 0.75 | 0.73 | 98 | 1008.4 |
| 20260510033017 | 55 | 0.0 | 1.7 | 0.02 | 0.75 | 0.73 | 98 | 1007.7 | |
| 20260510032017 | 54 | 0.0 | 0.0 | 0.01 | 0.74 | 0.72 | 98 | 1007.5 | |
| 20260510031017 | 54 | 0.0 | 0.9 | 0.02 | 0.74 | 0.72 | 98 | 1007.9 | |
| 20260510030017 | 54 | 0.0 | 2.6 | 0.02 | 0.74 | 0.72 | 98 | 1007.8 | |
| 20260510025017 | 54 | 0.0 | 2.6 | 0.02 | 0.73 | 0.71 | 98 | 1008.2 | |
| 20260510024017 | 54 | 0.0 | 0.0 | 0.03 | 0.73 | 0.71 | 98 | 1008.2 | |
| 20260510023017 | 54 | 0.0 | 0.0 | 0.04 | 0.74 | 0.71 | 98 | 1007.8 | |
| 20260510022037 | 54 | 0.0 | 0.0 | 0.05 | 0.74 | 0.71 | 98 | 1007.4 | |
| 20260510021037 | 54 | 0.0 | 0.9 | 0.05 | 0.74 | 0.70 | 98 | 1007.1 | |
| 20260510020017 | 54 | 0.0 | 0.9 | 0.06 | 0.74 | 0.70 | 97 | 1007.1 | |
| 20260510014017 | 54 | 0.0 | 0.0 | 0.07 | 0.72 | 0.68 | 97 | 1006.7 | |
| 20260510013017 | 54 | 0.0 | 0.0 | 0.08 | 0.72 | 0.67 | 97 | 1006.6 | |
| 20260510012017 | 54 | 0.0 | 0.0 | 0.09 | 0.71 | 0.66 | 97 | 1006.5 | |
| 20260510011017 | 55 | 0.0 | 0.0 | 0.11 | 0.71 | 0.65 | 97 | 1006.4 | |
| 20260510010017 | 55 | 0.0 | 0.9 | 0.13 | 0.70 | 0.64 | 96 | 1006.3 | |
| 20260510005017 | 55 | 0.0 | 0.0 | 0.16 | 0.70 | 0.63 | 96 | 1006.5 | |
| 20260510004017 | 55 | 0.0 | 0.0 | 0.19 | 0.68 | 0.61 | 96 | 1006.6 | |
| 20260510003018 | 55 | 0.0 | 0.0 | 0.23 | 0.67 | 0.59 | 95 | 1006.4 | |
| 20260510002017 | 55 | 0.0 | 0.9 | 0.21 | 0.65 | 0.57 | 95 | 1006.4 | |
| 20260510001017 | 55 | 293 | 2.6 | 5.2 | 0.18 | 0.62 | 0.54 | 94 | 1006.9 |
| 20260510000037 | 55 | 293 | 1.7 | 7.8 | 0.15 | 0.60 | 0.51 | 93 | 1006.8 |
| 20260509235017 | 56 | 338 | 3.5 | 12.2 | 0.11 | 0.57 | 0.47 | 92 | 1006.6 |
| 20260509234017 | 56 | 0 | 5.2 | 13.9 | 0.06 | 0.53 | 0.42 | 89 | 1006.5 |
| 20260509233037 | 63 | 0 | 2.6 | 11.3 | 0.00 | 0.49 | 0.36 | 73 | 1006.2 |
| 20260509232037 | 66 | 203 | 1.7 | 7.0 | 0.00 | 0.50 | 0.36 | 68 | 1005.4 |
| 20260509231037 | 66 | 203 | 0.9 | 7.8 | 0.00 | 0.50 | 0.36 | 67 | 1004.8 |
| 20260509230058 | 67 | 203 | 0.9 | 9.6 | 0.00 | 0.50 | 0.36 | 66 | 1004.7 |
| 20260509225037 | 67 | 180 | 1.7 | 7.0 | 0.00 | 0.50 | 0.36 | 66 | 1004.6 |
| 20260509224017 | 68 | 203 | 2.6 | 10.4 | 0.00 | 0.50 | 0.36 | 64 | 1004.5 |
| 20260509223017 | 68 | 203 | 4.3 | 12.2 | 0.00 | 0.50 | 0.36 | 63 | 1004.5 |
| 20260509222017 | 68 | 203 | 4.3 | 13.9 | 0.00 | 0.50 | 0.36 | 64 | 1004.6 |
| 20260509221017 | 69 | 203 | 3.5 | 12.2 | 0.00 | 0.50 | 0.36 | 62 | 1004.5 |
| 20260509220016 | 69 | 203 | 2.6 | 12.2 | 0.00 | 0.50 | 0.36 | 61 | 1004.7 |
| 20260509215016 | 69 | 180 | 2.6 | 8.7 | 0.00 | 0.50 | 0.36 | 62 | 1004.7 |
| 20260509214016 | 69 | 180 | 3.5 | 11.3 | 0.00 | 0.50 | 0.36 | 62 | 1004.6 |
| 20260509213017 | 69 | 180 | 1.7 | 8.7 | 0.00 | 0.50 | 0.36 | 64 | 1004.6 |
| 20260509212037 | 69 | 203 | 2.6 | 10.4 | 0.00 | 0.50 | 0.36 | 62 | 1004.9 |
| 20260509211017 | 69 | 203 | 2.6 | 16.5 | 0.00 | 0.50 | 0.36 | 63 | 1004.9 |
| 20260509210017 | 69 | 203 | 4.3 | 14.8 | 0.00 | 0.50 | 0.36 | 63 | 1005.1 |
| 20260509205017 | 69 | 180 | 2.6 | 10.4 | 0.00 | 0.50 | 0.36 | 65 | 1005.5 |
| 20260509204017 | 70 | 203 | 0.9 | 3.5 | 0.00 | 0.50 | 0.36 | 64 | 1005.6 |
| 20260509203016 | 68 | 203 | 2.6 | 9.6 | 0.00 | 0.50 | 0.36 | 66 | 1005.5 |
| 20260509202016 | 68 | 203 | 2.6 | 9.6 | 0.00 | 0.50 | 0.36 | 67 | 1005.7 |
| 20260509201016 | 68 | 203 | 4.3 | 13.0 | 0.00 | 0.51 | 0.36 | 65 | 1005.9 |
| 20260509200016 | 67 | 203 | 3.5 | 8.7 | 0.00 | 0.52 | 0.36 | 68 | 1006.1 |
| 20260509195016 | 67 | 180 | 2.6 | 12.2 | 0.00 | 0.52 | 0.36 | 71 | 1006.2 |
| 20260509194016 | 67 | 180 | 3.5 | 7.8 | 0.00 | 0.53 | 0.36 | 69 | 1006.3 |
| 20260509193016 | 68 | 180 | 2.6 | 12.2 | 0.00 | 0.55 | 0.36 | 70 | 1006.3 |
| 20260509192036 | 67 | 180 | 2.6 | 7.0 | 0.00 | 0.55 | 0.36 | 69 | 1006.5 |
| 20260509191016 | 66 | 203 | 2.6 | 6.1 | 0.00 | 0.55 | 0.36 | 71 | 1006.6 |
| 20260509190037 | 66 | 203 | 0.9 | 8.7 | 0.00 | 0.55 | 0.36 | 71 | 1006.6 |
| 20260509185016 | 67 | 180 | 1.7 | 11.3 | 0.00 | 0.55 | 0.36 | 71 | 1006.6 |
| 20260509184016 | 67 | 225 | 2.6 | 12.2 | 0.00 | 0.55 | 0.36 | 70 | 1006.5 |
| 20260509183016 | 67 | 180 | 1.7 | 7.0 | 0.00 | 0.55 | 0.36 | 71 | 1006.5 |
| 20260509182016 | 67 | 203 | 3.5 | 13.0 | 0.00 | 0.55 | 0.36 | 70 | 1006.7 |
| 20260509181016 | 67 | 203 | 1.7 | 6.1 | 0.00 | 0.56 | 0.36 | 72 | 1006.9 |
| 20260509180056 | 66 | 225 | 1.7 | 6.1 | 0.00 | 0.57 | 0.36 | 71 | 1006.8 |
| 20260509175016 | 66 | 203 | 1.7 | 11.3 | 0.00 | 0.58 | 0.36 | 75 | 1006.9 |
| 20260509174016 | 65 | 248 | 1.7 | 7.0 | 0.00 | 0.58 | 0.36 | 75 | 1006.9 |
| 20260509173016 | 65 | 180 | 2.6 | 8.7 | 0.00 | 0.58 | 0.36 | 76 | 1006.9 |
| 20260509172017 | 64 | 203 | 3.5 | 8.7 | 0.00 | 0.58 | 0.36 | 76 | 1006.9 |
| 20260509171016 | 65 | 225 | 0.9 | 2.6 | 0.00 | 0.58 | 0.36 | 77 | 1006.8 |
| 20260509170016 | 64 | 203 | 2.6 | 8.7 | 0.00 | 0.58 | 0.36 | 75 | 1006.8 |
| 20260509165016 | 64 | 203 | 1.7 | 7.0 | 0.00 | 0.58 | 0.36 | 73 | 1006.9 |
| 20260509164016 | 64 | 248 | 0.9 | 4.3 | 0.00 | 0.58 | 0.36 | 77 | 1007.3 |
| 20260509163016 | 64 | 203 | 0.9 | 3.5 | 0.00 | 0.59 | 0.36 | 80 | 1007.3 |
| 20260509162016 | 62 | 180 | 0.9 | 2.6 | 0.00 | 0.59 | 0.36 | 82 | 1007.2 |
| 20260509161016 | 62 | 203 | 1.7 | 6.1 | 0.00 | 0.59 | 0.36 | 82 | 1007.1 |
| 20260509160016 | 63 | 225 | 0.9 | 3.5 | 0.00 | 0.59 | 0.36 | 83 | 1007.3 |
| 20260509155016 | 62 | 248 | 0.9 | 3.5 | 0.00 | 0.59 | 0.36 | 85 | 1007.3 |
| 20260509154036 | 61 | 203 | 0.9 | 4.3 | 0.00 | 0.59 | 0.36 | 90 | 1007.3 |
| 20260509153036 | 59 | 225 | 0.9 | 3.5 | 0.00 | 0.59 | 0.36 | 91 | 1007.2 |
| 20260509152036 | 60 | 203 | 0.9 | 6.1 | 0.00 | 0.59 | 0.36 | 92 | 1007.3 |
| 20260509151016 | 59 | 203 | 0.9 | 5.2 | 0.00 | 0.59 | 0.36 | 94 | 1007.1 |
| 20260509150016 | 58 | 203 | 0.9 | 3.5 | 0.00 | 0.59 | 0.36 | 96 | 1007.1 |
| 20260509145016 | 57 | 203 | 1.7 | 6.1 | 0.00 | 0.59 | 0.36 | 97 | 1006.8 |
| 20260509144016 | 58 | 203 | 1.7 | 6.1 | 0.00 | 0.59 | 0.36 | 98 | 1006.9 |
| 20260509143016 | 57 | 203 | 0.9 | 5.2 | 0.00 | 0.59 | 0.36 | 99 | 1006.9 |
| 20260509142016 | 55 | 180 | 0.9 | 5.2 | 0.00 | 0.59 | 0.36 | 99 | 1006.8 |
| 20260509141016 | 55 | 203 | 0.9 | 3.5 | 0.00 | 0.59 | 0.36 | 99 | 1006.9 |
| 20260509140016 | 55 | 180 | 1.7 | 5.2 | 0.00 | 0.59 | 0.36 | 99 | 1006.7 |
| 20260509135016 | 54 | 203 | 1.7 | 7.0 | 0.00 | 0.59 | 0.36 | 99 | 1006.7 |
| 20260509134016 | 54 | 180 | 0.9 | 4.3 | 0.00 | 0.59 | 0.36 | 99 | 1006.7 |
| 20260509133016 | 54 | 0.0 | 3.5 | 0.00 | 0.59 | 0.36 | 100 | 1006.8 | |
| 20260509132017 | 54 | 180 | 1.7 | 6.1 | 0.00 | 0.59 | 0.36 | 100 | 1006.8 |
| 20260509131016 | 53 | 158 | 0.9 | 4.3 | 0.00 | 0.59 | 0.36 | 99 | 1006.9 |
| 20260509130016 | 53 | 0.0 | 2.6 | 0.00 | 0.59 | 0.36 | 99 | 1007.0 | |
| 20260509125016 | 53 | 203 | 0.9 | 5.2 | 0.00 | 0.59 | 0.36 | 100 | 1007.1 |
| 20260509124017 | 53 | 203 | 0.9 | 4.3 | 0.00 | 0.59 | 0.36 | 100 | 1007.2 |
| 20260509123016 | 53 | 203 | 0.9 | 2.6 | 0.00 | 0.59 | 0.36 | 99 | 1007.2 |
| 20260509122016 | 53 | 180 | 0.9 | 4.3 | 0.00 | 0.59 | 0.36 | 100 | 1007.2 |
| 20260509121016 | 52 | 0.0 | 0.0 | 0.00 | 0.59 | 0.36 | 100 | 1007.2 | |
| 20260509120016 | 52 | 0.0 | 0.0 | 0.00 | 0.59 | 0.36 | 100 | 1007.3 | |
| 20260509115057 | 52 | 0.0 | 0.0 | 0.00 | 0.59 | 0.36 | 100 | 1007.3 | |
| 20260509114016 | 52 | 0.0 | 0.0 | 0.00 | 0.59 | 0.36 | 99 | 1007.3 | |
| 20260509113016 | 52 | 0.0 | 1.7 | 0.00 | 0.59 | 0.36 | 99 | 1007.2 | |
| 20260509112016 | 52 | 0.0 | 2.6 | 0.01 | 0.59 | 0.36 | 99 | 1007.2 | |
| 20260509111016 | 52 | 0.0 | 0.9 | 0.01 | 0.59 | 0.36 | 99 | 1007.0 | |
| 20260509110016 | 52 | 0.0 | 0.0 | 0.01 | 0.59 | 0.36 | 99 | 1007.0 | |
| 20260509105016 | 52 | 0.0 | 0.0 | 0.02 | 0.59 | 0.36 | 99 | 1007.1 |